createdAt,value
2022-10-22T00:01:10.545Z,25.10
2022-10-22T00:03:36.891Z,25.02
2022-10-22T00:06:03.541Z,25.50
2022-10-22T00:08:30.081Z,26.02
2022-10-22T00:10:56.450Z,24.48
2022-10-22T00:13:22.800Z,25.23
2022-10-22T00:15:49.113Z,23.75
2022-10-22T00:18:15.462Z,23.58
2022-10-22T00:20:42.169Z,22.85
2022-10-22T00:23:08.477Z,24.55
2022-10-22T00:25:35.753Z,24.25
2022-10-22T00:28:02.737Z,25.75
2022-10-22T00:30:29.021Z,24.90
2022-10-22T00:32:55.289Z,23.77
2022-10-22T00:35:21.573Z,24.27
2022-10-22T00:37:47.829Z,23.25
2022-10-22T00:40:14.167Z,22.90
2022-10-22T00:42:40.534Z,21.85
2022-10-22T00:45:10.020Z,23.10
2022-10-22T00:47:39.380Z,21.80
2022-10-22T00:50:07.597Z,23.20
2022-10-22T00:52:34.184Z,23.65
2022-10-22T00:55:00.866Z,22.83
2022-10-22T00:57:27.681Z,23.35
2022-10-22T00:59:54.200Z,24.10
2022-10-22T01:02:21.040Z,23.98
2022-10-22T01:04:47.370Z,24.50
2022-10-22T01:07:17.097Z,24.58
2022-10-22T01:09:50.277Z,24.42
2022-10-22T01:12:26.718Z,22.53
2022-10-22T01:15:19.295Z,23.92
2022-10-22T01:17:58.491Z,23.75
2022-10-22T01:20:43.464Z,22.95
2022-10-22T01:23:28.628Z,23.35
2022-10-22T01:26:06.609Z,23.73
2022-10-22T01:29:08.569Z,24.70
2022-10-22T01:31:38.794Z,24.23
2022-10-22T01:34:06.237Z,24.30
2022-10-22T01:36:33.858Z,23.60
2022-10-22T01:39:01.868Z,23.25
2022-10-22T01:41:28.964Z,25.52
2022-10-22T01:43:55.519Z,25.30
2022-10-22T01:46:23.178Z,25.38
2022-10-22T01:49:16.442Z,24.02
2022-10-22T01:51:58.692Z,25.70
2022-10-22T01:54:31.067Z,25.20
2022-10-22T01:57:16.317Z,24.88
2022-10-22T01:59:52.020Z,25.45
2022-10-22T02:02:28.313Z,24.95
2022-10-22T02:05:03.220Z,24.70
2022-10-22T02:07:32.309Z,22.92
2022-10-22T02:09:59.476Z,24.52
2022-10-22T02:12:26.473Z,24.60
2022-10-22T02:14:52.965Z,25.13
2022-10-22T02:17:21.296Z,24.65
2022-10-22T02:19:53.673Z,25.67
2022-10-22T02:22:20.352Z,23.67
2022-10-22T02:24:47.223Z,11.20
2022-10-22T02:27:25.865Z,9.52
2022-10-22T02:30:02.511Z,9.10
2022-10-22T02:32:32.657Z,10.00
2022-10-22T02:34:59.953Z,10.70
2022-10-22T02:37:27.158Z,11.25
2022-10-22T02:39:53.959Z,12.15
2022-10-22T02:42:20.294Z,11.05
2022-10-22T02:44:46.577Z,11.65
2022-10-22T02:47:12.853Z,11.57
2022-10-22T02:49:39.121Z,11.73
2022-10-22T02:52:05.410Z,12.55
2022-10-22T02:54:31.721Z,12.02
2022-10-22T02:56:58.036Z,12.65
2022-10-22T02:59:24.320Z,11.65
2022-10-22T03:01:50.572Z,11.68
2022-10-22T03:04:16.882Z,11.95
2022-10-22T03:06:44.204Z,11.52
2022-10-22T03:09:10.694Z,11.55
2022-10-22T03:11:36.955Z,11.95
2022-10-22T03:14:03.718Z,11.65
2022-10-22T03:16:30.017Z,11.35
2022-10-22T03:18:56.323Z,10.95
2022-10-22T03:21:22.679Z,10.40
2022-10-22T03:23:48.995Z,9.90
2022-10-22T03:26:15.345Z,8.10
2022-10-22T03:28:42.122Z,8.15
2022-10-22T03:31:08.416Z,7.47
2022-10-22T03:33:34.705Z,7.97
2022-10-22T03:36:01.149Z,6.97
2022-10-22T03:38:27.533Z,6.70
2022-10-22T03:40:53.869Z,7.20
2022-10-22T03:43:20.200Z,7.57
2022-10-22T03:45:46.549Z,5.97
2022-10-22T03:48:12.949Z,5.85
2022-10-22T03:50:39.225Z,6.10
2022-10-22T03:53:07.053Z,5.75
2022-10-22T03:55:33.361Z,5.60
2022-10-22T03:57:59.621Z,5.07
2022-10-22T04:00:25.914Z,4.97
2022-10-22T04:02:52.197Z,5.63
2022-10-22T04:05:18.508Z,4.82
2022-10-22T04:07:44.837Z,5.32
2022-10-22T04:10:11.258Z,5.40
2022-10-22T04:12:37.588Z,5.57
2022-10-22T04:15:04.570Z,5.90
2022-10-22T04:17:37.127Z,5.63
2022-10-22T04:20:03.967Z,5.25
2022-10-22T04:22:32.735Z,4.93
2022-10-22T04:24:59.008Z,5.15
2022-10-22T04:27:25.292Z,5.07
2022-10-22T04:29:52.132Z,4.70
2022-10-22T04:32:18.456Z,4.70
2022-10-22T04:34:44.733Z,4.85
2022-10-22T04:37:11.013Z,5.05
2022-10-22T04:39:37.403Z,6.25
2022-10-22T04:42:03.934Z,6.50
2022-10-22T04:44:30.316Z,8.15
2022-10-22T04:46:56.607Z,8.80
2022-10-22T04:49:22.951Z,9.45
2022-10-22T04:51:49.280Z,10.95
2022-10-22T04:54:15.558Z,11.18
2022-10-22T04:56:41.918Z,10.23
2022-10-22T04:59:08.897Z,11.00
2022-10-22T05:01:42.950Z,11.20
2022-10-22T05:04:11.956Z,10.98
2022-10-22T05:06:38.401Z,10.43
2022-10-22T05:09:06.108Z,11.18
2022-10-22T05:11:33.956Z,12.52
2022-10-22T05:14:01.170Z,12.75
2022-10-22T05:16:28.864Z,13.32
2022-10-22T05:18:55.672Z,12.77
2022-10-22T05:21:22.180Z,11.77
2022-10-22T05:23:49.317Z,12.38
2022-10-22T05:26:16.712Z,12.05
2022-10-22T05:28:42.984Z,12.15
2022-10-22T05:31:10.852Z,12.88
2022-10-22T05:33:37.150Z,11.45
2022-10-22T05:36:04.573Z,12.43
2022-10-22T05:38:31.729Z,11.52
2022-10-22T05:41:08.487Z,9.32
2022-10-22T05:43:35.092Z,9.18
2022-10-22T05:46:05.597Z,9.68
2022-10-22T05:51:04.490Z,9.20
2022-10-22T05:53:31.757Z,8.63
2022-10-22T05:56:05.220Z,8.27
2022-10-22T05:58:31.560Z,8.30
2022-10-22T06:01:08.434Z,6.90
2022-10-22T06:03:35.001Z,6.88
2022-10-22T06:06:02.399Z,7.15
2022-10-22T06:08:29.643Z,6.72
2022-10-22T06:10:56.736Z,5.97
2022-10-22T06:13:23.032Z,6.07
2022-10-22T06:15:50.146Z,6.25
2022-10-22T06:18:16.503Z,5.70
2022-10-22T06:20:43.653Z,6.18
2022-10-22T06:23:09.966Z,5.43
2022-10-22T06:25:36.308Z,5.80
2022-10-22T06:28:02.633Z,5.63
2022-10-22T06:30:28.884Z,5.10
2022-10-22T06:32:55.812Z,4.40
2022-10-22T06:35:22.075Z,4.00
2022-10-22T06:37:48.436Z,3.83
2022-10-22T06:40:16.266Z,3.92
2022-10-22T06:42:42.862Z,3.53
2022-10-22T06:45:09.838Z,3.42
2022-10-22T06:47:37.199Z,3.28
2022-10-22T06:50:04.201Z,3.47
2022-10-22T06:52:30.525Z,3.33
2022-10-22T06:54:56.896Z,3.78
2022-10-22T06:57:23.181Z,3.67
2022-10-22T06:59:49.485Z,3.55
2022-10-22T07:02:15.756Z,3.45
2022-10-22T07:04:42.032Z,2.92
2022-10-22T07:07:08.317Z,3.00
2022-10-22T07:09:34.590Z,2.80
2022-10-22T07:12:00.873Z,3.20
2022-10-22T07:14:27.190Z,2.88
2022-10-22T07:16:53.504Z,2.55
2022-10-22T07:19:19.769Z,2.83
2022-10-22T07:21:46.084Z,2.50
2022-10-22T07:24:12.402Z,2.50
2022-10-22T07:26:39.029Z,2.45
2022-10-22T07:29:05.311Z,2.08
2022-10-22T07:31:31.620Z,1.80
2022-10-22T07:33:58.254Z,1.65
2022-10-22T07:36:24.544Z,1.95
2022-10-22T07:38:54.003Z,1.67
2022-10-22T07:41:20.270Z,6.10
2022-10-22T07:43:46.609Z,1.55
2022-10-22T07:46:13.256Z,1.30
2022-10-22T07:48:39.697Z,3.22
2022-10-22T07:51:06.005Z,2.10
2022-10-22T07:53:32.607Z,2.10
2022-10-22T07:55:58.877Z,1.95
2022-10-22T07:58:25.368Z,2.10
2022-10-22T08:00:54.629Z,2.15
2022-10-22T08:03:21.173Z,2.00
2022-10-22T08:05:47.548Z,2.47
2022-10-22T08:08:14.921Z,2.30
2022-10-22T08:10:41.314Z,2.17
2022-10-22T08:13:08.004Z,2.17
2022-10-22T08:15:34.555Z,2.10
2022-10-22T08:18:00.864Z,2.55
2022-10-22T08:20:27.265Z,2.20
2022-10-22T08:22:53.716Z,2.40
2022-10-22T08:25:20.005Z,2.35
2022-10-22T08:27:46.288Z,2.13
2022-10-22T08:30:13.604Z,2.75
2022-10-22T08:32:40.361Z,2.30
2022-10-22T08:35:06.769Z,2.20
2022-10-22T08:37:33.303Z,2.33
2022-10-22T08:39:59.577Z,2.10
2022-10-22T08:42:44.844Z,2.10
2022-10-22T08:45:13.319Z,2.15
2022-10-22T08:47:48.296Z,2.28
2022-10-22T08:50:17.480Z,2.30
2022-10-22T08:52:46.122Z,1.98
2022-10-22T08:55:14.183Z,2.22
2022-10-22T08:57:52.584Z,2.25
2022-10-22T09:00:36.410Z,2.30
2022-10-22T09:03:22.985Z,1.87
2022-10-22T09:05:49.262Z,2.35
2022-10-22T09:08:17.417Z,2.08
2022-10-22T09:10:47.386Z,2.20
2022-10-22T09:13:16.075Z,2.10
2022-10-22T09:15:43.803Z,1.95
2022-10-22T09:18:16.648Z,2.20
2022-10-22T09:21:06.265Z,2.03
2022-10-22T09:23:37.691Z,2.20
2022-10-22T09:26:12.008Z,1.92
2022-10-22T09:31:10.047Z,1.50
2022-10-22T09:33:36.353Z,2.65
2022-10-22T09:36:03.360Z,1.70
2022-10-22T09:38:31.021Z,5.05
2022-10-22T09:40:58.804Z,3.70
2022-10-22T09:43:25.081Z,2.65
2022-10-22T09:45:59.101Z,2.05
2022-10-22T09:48:30.801Z,1.40
2022-10-22T09:51:00.380Z,1.75
2022-10-22T09:53:28.668Z,2.15
2022-10-22T09:58:22.505Z,1.60
2022-10-22T10:00:54.689Z,1.95
2022-10-22T10:03:29.410Z,1.58
2022-10-22T10:06:01.402Z,3.95
2022-10-22T10:08:31.243Z,1.88
2022-10-22T10:11:17.703Z,2.75
2022-10-22T10:13:43.938Z,1.25
2022-10-22T10:16:15.563Z,1.83
2022-10-22T10:18:54.183Z,1.70
2022-10-22T10:21:20.399Z,1.25
2022-10-22T10:23:52.816Z,2.08
2022-10-22T10:26:19.063Z,1.40
2022-10-22T10:29:01.331Z,1.35
2022-10-22T10:31:42.887Z,2.08
2022-10-22T10:34:14.797Z,2.08
2022-10-22T10:36:53.390Z,1.98
2022-10-22T10:39:38.565Z,1.75
2022-10-22T10:42:07.900Z,1.60
2022-10-22T10:44:58.848Z,1.27
2022-10-22T10:47:32.715Z,2.15
2022-10-22T10:52:37.832Z,2.15
2022-10-22T10:55:07.129Z,1.10
2022-10-22T10:57:33.398Z,1.33
2022-10-22T11:00:08.992Z,1.73
2022-10-22T11:02:52.283Z,1.30
2022-10-22T11:05:18.577Z,1.30
2022-10-22T11:07:44.844Z,1.25
2022-10-22T11:10:14.270Z,2.25
2022-10-22T11:12:44.314Z,3.28
2022-10-22T11:15:29.603Z,1.60
2022-10-22T11:17:59.364Z,1.58
2022-10-22T11:20:32.445Z,1.38
2022-10-22T11:23:21.562Z,1.33
2022-10-22T11:25:49.581Z,1.25
2022-10-22T11:28:34.841Z,1.38
2022-10-22T11:31:07.318Z,1.35
2022-10-22T11:33:39.231Z,1.45
2022-10-22T11:36:06.442Z,1.42
2022-10-22T11:38:35.109Z,1.40
2022-10-22T11:41:12.950Z,1.05
2022-10-22T11:44:04.743Z,1.25
2022-10-22T11:46:43.036Z,1.20
2022-10-22T11:49:09.282Z,1.20
2022-10-22T11:51:36.748Z,1.05
2022-10-22T11:54:23.000Z,1.33
2022-10-22T11:56:52.370Z,1.60
2022-10-22T11:59:39.625Z,2.45
2022-10-22T12:02:30.285Z,1.85
2022-10-22T12:05:16.532Z,2.47
2022-10-22T12:07:51.957Z,5.15
2022-10-22T12:10:22.418Z,1.77
2022-10-22T12:13:01.802Z,2.08
2022-10-22T12:15:28.637Z,1.38
2022-10-22T12:18:02.008Z,1.35
2022-10-22T12:20:29.551Z,1.25
2022-10-22T12:22:57.213Z,1.15
2022-10-22T12:25:24.618Z,1.27
2022-10-22T12:27:53.248Z,1.33
2022-10-22T12:30:23.446Z,1.30
2022-10-22T12:32:54.444Z,1.00
2022-10-22T12:35:22.768Z,1.42
2022-10-22T12:37:50.086Z,2.92
2022-10-22T12:40:17.268Z,1.30
2022-10-22T12:42:47.585Z,1.38
2022-10-22T12:45:13.864Z,1.60
2022-10-22T12:47:40.574Z,1.63
2022-10-22T12:50:07.523Z,1.52
2022-10-22T12:52:33.821Z,2.10
2022-10-22T12:55:00.155Z,2.03
2022-10-22T12:57:26.461Z,1.90
2022-10-22T12:59:52.854Z,1.05
2022-10-22T13:02:21.172Z,1.88
2022-10-22T13:05:06.265Z,2.65
2022-10-22T13:07:39.354Z,2.00
2022-10-22T13:10:16.879Z,1.90
2022-10-22T13:12:44.616Z,1.38
2022-10-22T13:15:43.296Z,1.30
2022-10-22T13:18:20.927Z,1.45
2022-10-22T13:20:51.632Z,1.70
2022-10-22T13:23:19.690Z,1.40
2022-10-22T13:25:56.334Z,1.40
2022-10-22T13:28:24.633Z,1.73
2022-10-22T13:30:52.337Z,2.20
2022-10-22T13:33:23.762Z,2.40
2022-10-22T13:35:50.046Z,1.92
2022-10-22T13:38:18.464Z,2.10
2022-10-22T13:40:44.844Z,1.70
2022-10-22T13:43:11.132Z,2.25
2022-10-22T13:45:37.510Z,2.13
2022-10-22T13:48:04.026Z,2.70
2022-10-22T13:50:30.317Z,1.70
2022-10-22T13:52:57.614Z,1.77
2022-10-22T13:55:25.626Z,1.55
2022-10-22T13:58:06.308Z,1.48
2022-10-22T14:00:32.923Z,2.05
2022-10-22T14:02:59.625Z,1.73
2022-10-22T14:05:25.969Z,2.13
2022-10-22T14:07:52.445Z,1.98
2022-10-22T14:10:20.095Z,1.92
2022-10-22T14:12:50.856Z,1.73
2022-10-22T14:15:21.209Z,2.10
2022-10-22T14:17:49.486Z,2.00
2022-10-22T14:20:20.937Z,2.05
2022-10-22T14:22:48.244Z,2.28
2022-10-22T14:25:16.304Z,2.17
2022-10-22T14:27:43.433Z,2.00
2022-10-22T14:30:13.230Z,1.67
2022-10-22T14:32:39.868Z,1.88
2022-10-22T14:35:06.500Z,1.73
2022-10-22T14:37:32.858Z,1.98
2022-10-22T14:40:02.571Z,1.98
2022-10-22T14:42:29.065Z,2.10
2022-10-22T14:44:55.557Z,2.20
2022-10-22T14:47:21.876Z,1.90
2022-10-22T14:49:48.168Z,2.42
2022-10-22T14:52:15.109Z,1.73
2022-10-22T14:54:41.478Z,2.00
2022-10-22T14:57:08.678Z,1.88
2022-10-22T14:59:35.448Z,1.75
2022-10-22T15:02:01.724Z,1.98
2022-10-22T15:04:28.112Z,1.77
2022-10-22T15:06:59.034Z,1.75
2022-10-22T15:09:25.296Z,1.50
2022-10-22T15:11:51.616Z,1.70
2022-10-22T15:14:18.231Z,1.60
2022-10-22T15:16:44.530Z,1.67
2022-10-22T15:19:11.164Z,1.40
2022-10-22T15:21:37.509Z,1.50
2022-10-22T15:24:04.659Z,2.38
2022-10-22T15:26:30.994Z,1.55
2022-10-22T15:28:57.242Z,2.10
2022-10-22T15:31:41.837Z,1.77
2022-10-22T15:34:08.269Z,1.70
2022-10-22T15:36:34.561Z,1.50
2022-10-22T15:39:05.425Z,2.33
2022-10-22T15:41:31.712Z,2.08
2022-10-22T15:43:57.991Z,1.50
2022-10-22T15:46:25.541Z,1.90
2022-10-22T15:48:52.440Z,1.90
2022-10-22T15:51:19.251Z,2.15
2022-10-22T15:53:51.477Z,1.77
2022-10-22T15:56:17.820Z,1.98
2022-10-22T15:58:44.109Z,2.88
2022-10-22T16:01:11.774Z,1.75
2022-10-22T16:03:38.483Z,1.90
2022-10-22T16:06:05.031Z,1.92
2022-10-22T16:08:31.673Z,2.00
2022-10-22T16:10:58.566Z,2.38
2022-10-22T16:13:25.883Z,2.10
2022-10-22T16:15:52.451Z,2.08
2022-10-22T16:18:19.674Z,1.90
2022-10-22T16:20:46.118Z,1.75
2022-10-22T16:23:12.494Z,1.83
2022-10-22T16:25:39.295Z,1.77
2022-10-22T16:28:05.968Z,2.10
2022-10-22T16:30:33.360Z,1.88
2022-10-22T16:33:02.496Z,1.77
2022-10-22T16:35:30.286Z,1.83
2022-10-22T16:37:56.545Z,2.00
2022-10-22T16:40:22.849Z,2.13
2022-10-22T16:42:49.214Z,1.90
2022-10-22T16:47:43.083Z,1.88
2022-10-22T16:50:09.909Z,1.80
2022-10-22T16:52:36.163Z,2.80
2022-10-22T16:55:02.492Z,5.82
2022-10-22T16:57:28.962Z,6.00
2022-10-22T16:59:55.221Z,4.95
2022-10-22T17:02:21.515Z,5.90
2022-10-22T17:04:47.795Z,4.35
2022-10-22T17:07:14.226Z,4.25
2022-10-22T17:09:40.562Z,4.00
2022-10-22T17:12:06.920Z,4.40
2022-10-22T17:14:33.194Z,3.92
2022-10-22T17:16:59.485Z,4.00
2022-10-22T17:19:27.077Z,3.92
2022-10-22T17:21:54.125Z,4.97
2022-10-22T17:24:20.424Z,4.22
2022-10-22T17:26:47.134Z,4.47
2022-10-22T17:29:13.757Z,4.63
2022-10-22T17:31:40.430Z,4.80
2022-10-22T17:34:14.573Z,5.22
2022-10-22T17:39:07.493Z,4.90
2022-10-22T17:41:35.256Z,6.07
2022-10-22T17:44:02.673Z,7.85
2022-10-22T17:46:29.904Z,7.22
2022-10-22T17:49:00.462Z,8.15
2022-10-22T17:51:27.765Z,6.55
2022-10-22T17:53:54.167Z,7.40
2022-10-22T17:56:24.675Z,7.35
2022-10-22T17:58:51.369Z,5.60
2022-10-22T18:01:20.904Z,6.13
2022-10-22T18:03:47.621Z,6.43
2022-10-22T18:06:14.294Z,3.35
2022-10-22T18:08:40.706Z,3.20
2022-10-22T18:11:08.519Z,3.33
2022-10-22T18:13:34.886Z,4.65
2022-10-22T18:16:01.314Z,7.88
2022-10-22T18:18:28.027Z,6.57
2022-10-22T18:20:54.339Z,8.35
2022-10-22T18:23:20.686Z,11.57
2022-10-22T18:25:48.536Z,11.52
2022-10-22T18:28:15.949Z,9.85
2022-10-22T18:30:43.168Z,7.95
2022-10-22T18:33:13.406Z,8.45
2022-10-22T18:35:41.233Z,9.48
2022-10-22T18:38:07.965Z,10.93
2022-10-22T18:40:35.892Z,9.05
2022-10-22T18:43:02.670Z,8.00
2022-10-22T18:45:28.944Z,6.65
2022-10-22T18:47:55.288Z,6.68
2022-10-22T18:50:21.589Z,5.10
2022-10-22T18:52:47.873Z,5.47
2022-10-22T18:55:14.165Z,4.22
2022-10-22T18:57:40.457Z,4.65
2022-10-22T19:00:07.216Z,4.45
2022-10-22T19:02:33.530Z,5.07
2022-10-22T19:04:59.805Z,5.53
2022-10-22T19:07:26.095Z,5.82
2022-10-22T19:09:52.417Z,5.53
2022-10-22T19:12:21.419Z,5.63
2022-10-22T19:14:48.684Z,5.65
2022-10-22T19:17:15.015Z,6.63
2022-10-22T19:19:41.288Z,5.43
2022-10-22T19:22:07.545Z,7.25
2022-10-22T19:24:34.445Z,6.95
2022-10-22T19:27:00.880Z,5.55
2022-10-22T19:29:27.218Z,6.25
2022-10-22T19:31:53.564Z,5.22
2022-10-22T19:34:20.298Z,5.28
2022-10-22T19:36:46.730Z,5.18
2022-10-22T19:39:16.836Z,5.10
2022-10-22T19:41:43.424Z,5.15
2022-10-22T19:44:09.813Z,4.72
2022-10-22T19:46:36.287Z,4.55
2022-10-22T19:49:03.578Z,4.50
2022-10-22T19:51:30.941Z,4.45
2022-10-22T19:54:01.701Z,4.60
2022-10-22T19:56:28.627Z,4.88
2022-10-22T19:58:54.988Z,4.72
2022-10-22T20:01:21.661Z,6.70
2022-10-22T20:03:48.010Z,7.90
2022-10-22T20:06:15.873Z,7.65
2022-10-22T20:08:42.601Z,7.55
2022-10-22T20:11:10.739Z,6.97
2022-10-22T20:13:37.585Z,6.90
2022-10-22T20:16:04.542Z,6.15
2022-10-22T20:18:33.902Z,6.50
2022-10-22T20:21:04.276Z,6.80
2022-10-22T20:23:30.566Z,7.13
2022-10-22T20:25:56.857Z,7.32
2022-10-22T20:28:23.121Z,7.88
2022-10-22T20:30:49.435Z,7.13
2022-10-22T20:33:15.730Z,5.93
2022-10-22T20:35:42.371Z,5.28
2022-10-22T20:38:12.162Z,5.35
2022-10-22T20:40:38.456Z,4.97
2022-10-22T20:43:04.729Z,4.82
2022-10-22T20:45:31.075Z,5.18
2022-10-22T20:48:02.760Z,4.20
2022-10-22T20:50:31.333Z,4.53
2022-10-22T20:52:57.851Z,3.80
2022-10-22T20:55:24.277Z,4.63
2022-10-22T20:57:50.548Z,4.63
2022-10-22T21:00:16.924Z,4.03
2022-10-22T21:02:43.236Z,4.07
2022-10-22T21:05:09.500Z,4.18
2022-10-22T21:07:35.769Z,3.88
2022-10-22T21:10:02.061Z,3.53
2022-10-22T21:12:28.337Z,4.25
2022-10-22T21:14:54.639Z,3.65
2022-10-22T21:17:20.921Z,3.95
2022-10-22T21:19:47.221Z,3.97
2022-10-22T21:22:13.496Z,3.92
2022-10-22T21:24:41.012Z,4.57
2022-10-22T21:27:07.398Z,5.03
2022-10-22T21:29:33.670Z,4.78
2022-10-22T21:31:59.937Z,4.55
2022-10-22T21:34:26.210Z,7.15
2022-10-22T21:36:52.878Z,8.02
2022-10-22T21:39:19.129Z,12.75
2022-10-22T21:41:45.481Z,11.45
2022-10-22T21:44:11.883Z,10.27
2022-10-22T21:46:38.277Z,6.22
2022-10-22T21:49:04.826Z,5.07
2022-10-22T21:51:33.113Z,4.47
2022-10-22T21:53:59.673Z,4.10
2022-10-22T21:56:27.071Z,3.90
2022-10-22T21:58:53.624Z,4.50
2022-10-22T22:01:20.104Z,4.80
2022-10-22T22:03:48.956Z,3.13
2022-10-22T22:06:20.413Z,3.70
2022-10-22T22:08:47.902Z,3.03
2022-10-22T22:11:15.257Z,3.78
2022-10-22T22:13:41.585Z,3.75
2022-10-22T22:16:09.620Z,3.10
2022-10-22T22:18:36.384Z,3.17
2022-10-22T22:21:04.262Z,4.28
2022-10-22T22:23:30.609Z,3.63
2022-10-22T22:26:00.706Z,5.18
2022-10-22T22:28:30.155Z,6.70
2022-10-22T22:30:56.796Z,5.97
2022-10-22T22:33:23.358Z,5.07
2022-10-22T22:35:49.705Z,6.85
2022-10-22T22:38:16.141Z,9.45
2022-10-22T22:40:43.182Z,8.93
2022-10-22T22:43:10.161Z,8.00
2022-10-22T22:45:37.821Z,7.82
2022-10-22T22:48:04.216Z,8.63
2022-10-22T22:50:30.554Z,8.60
2022-10-22T22:52:56.860Z,8.40
2022-10-22T22:55:23.437Z,6.30
2022-10-22T22:57:49.815Z,5.65
2022-10-22T23:00:16.304Z,9.18
2022-10-22T23:02:42.962Z,8.55
2022-10-22T23:05:09.489Z,7.35
2022-10-22T23:07:35.790Z,5.57
2022-10-22T23:10:02.070Z,5.05
2022-10-22T23:12:29.151Z,4.85
2022-10-22T23:14:55.496Z,4.35
2022-10-22T23:17:21.865Z,4.53
2022-10-22T23:19:48.128Z,4.43
2022-10-22T23:22:14.415Z,4.47
2022-10-22T23:24:40.717Z,4.30
2022-10-22T23:27:07.241Z,4.95
2022-10-22T23:29:35.646Z,5.30
2022-10-22T23:32:03.005Z,5.63
2022-10-22T23:34:29.737Z,5.72
2022-10-22T23:36:56.541Z,5.03
2022-10-22T23:39:23.997Z,4.32
2022-10-22T23:41:50.523Z,6.15
2022-10-22T23:44:16.874Z,5.50
2022-10-22T23:46:43.201Z,5.53
2022-10-22T23:49:09.913Z,4.82
2022-10-22T23:51:36.304Z,4.22
2022-10-22T23:54:04.496Z,4.22
2022-10-22T23:56:31.174Z,3.92
2022-10-22T23:58:57.585Z,3.58
